createdAt,value
2023-05-19T00:00:04.350Z,31.5
2023-05-19T00:02:09.920Z,31.57
2023-05-19T00:04:15.652Z,31.39
2023-05-19T00:06:21.562Z,31.7
2023-05-19T00:08:27.659Z,31.69
2023-05-19T00:10:34.865Z,31.46
2023-05-19T00:12:40.542Z,31.64
2023-05-19T00:14:47.868Z,31.57
2023-05-19T00:16:53.621Z,31.35
2023-05-19T00:19:00.764Z,31.59
2023-05-19T00:21:07.399Z,31.33
2023-05-19T00:23:13.121Z,31.9
2023-05-19T00:25:18.769Z,31.66
2023-05-19T00:27:24.606Z,31.63
2023-05-19T00:29:30.560Z,31.58
2023-05-19T00:31:36.736Z,31.48
2023-05-19T00:33:42.533Z,31.65
2023-05-19T00:35:47.972Z,31.67
2023-05-19T00:37:54.275Z,31.43
2023-05-19T00:40:01.615Z,31.59
2023-05-19T00:42:07.474Z,31.53
2023-05-19T00:44:14.247Z,31.4
2023-05-19T00:46:20.068Z,31.59
2023-05-19T00:48:26.296Z,31.59
2023-05-19T00:50:32.465Z,31.4
2023-05-19T00:52:38.482Z,31.72
2023-05-19T00:54:44.173Z,32.03
2023-05-19T00:56:49.798Z,31.88
2023-05-19T00:58:55.742Z,31.9
2023-05-19T01:01:02.514Z,31.71
2023-05-19T01:03:08.713Z,32.07
2023-05-19T01:05:14.308Z,32.22
2023-05-19T01:07:19.873Z,31.8
2023-05-19T01:09:25.800Z,32.16
2023-05-19T01:11:31.247Z,31.92
2023-05-19T01:13:38.631Z,32.07
2023-05-19T01:15:45.712Z,31.67
2023-05-19T01:17:51.443Z,31.76
2023-05-19T01:19:57.818Z,32.14
2023-05-19T01:22:03.791Z,32.06
2023-05-19T01:24:09.416Z,31.91
2023-05-19T01:26:15.120Z,31.95
2023-05-19T01:28:21.440Z,31.9
2023-05-19T01:30:27.178Z,31.7
2023-05-19T01:32:35.879Z,31.73
2023-05-19T01:34:41.529Z,31.88
2023-05-19T01:36:48.402Z,31.81
2023-05-19T01:38:54.071Z,31.95
2023-05-19T01:41:02.056Z,31.88
2023-05-19T01:43:07.847Z,32.09
2023-05-19T01:45:14.328Z,31.82
2023-05-19T01:47:20.229Z,32.17
2023-05-19T01:49:25.720Z,31.96
2023-05-19T01:51:31.337Z,31.82
2023-05-19T01:53:36.886Z,32.05
2023-05-19T01:56:35.880Z,32.27
2023-05-19T01:58:41.772Z,32.33
2023-05-19T02:00:47.158Z,32.45
2023-05-19T02:02:52.891Z,32.44
2023-05-19T02:04:58.424Z,32.31
2023-05-19T02:07:04.004Z,32.38
2023-05-19T02:09:09.333Z,32.59
2023-05-19T02:11:14.772Z,32.43
2023-05-19T02:13:20.844Z,33.04
2023-05-19T02:15:26.478Z,32.79
2023-05-19T02:17:32.327Z,32.75
2023-05-19T02:19:38.677Z,33
2023-05-19T02:21:45.981Z,32.76
2023-05-19T02:23:53.023Z,32.84
2023-05-19T02:25:58.572Z,32.84
2023-05-19T02:28:04.581Z,32.89
2023-05-19T02:30:13.867Z,32.82
2023-05-19T02:32:21.118Z,32.97
2023-05-19T02:34:28.465Z,32.9
2023-05-19T02:36:34.986Z,32.91
2023-05-19T02:38:40.844Z,33.01
2023-05-19T02:40:48.643Z,33.42
2023-05-19T02:42:54.082Z,33.21
2023-05-19T02:45:01.490Z,33.1
2023-05-19T02:47:07.133Z,32.96
2023-05-19T02:49:12.767Z,33.22
2023-05-19T02:51:19.180Z,33.05
2023-05-19T02:53:25.173Z,33.42
2023-05-19T02:55:31.077Z,32.94
2023-05-19T02:57:36.754Z,33.41
2023-05-19T02:59:43.257Z,33.19
2023-05-19T03:01:50.343Z,33.39
2023-05-19T03:03:56.461Z,33.04
2023-05-19T03:06:03.966Z,33.36
2023-05-19T03:08:09.667Z,33.19
2023-05-19T03:10:15.588Z,33.67
2023-05-19T03:12:20.880Z,33.31
2023-05-19T03:14:26.905Z,33.51
2023-05-19T03:16:32.749Z,33.49
2023-05-19T03:18:40.536Z,33.57
2023-05-19T03:20:46.240Z,33.57
2023-05-19T03:22:51.996Z,33.37
2023-05-19T03:24:58.699Z,33.71
2023-05-19T03:27:04.408Z,33.45
2023-05-19T03:29:10.261Z,33.77
2023-05-19T03:31:17.183Z,33.55
2023-05-19T03:33:23.329Z,33.64
2023-05-19T03:35:29.138Z,33.79
2023-05-19T03:37:34.695Z,33.64
2023-05-19T03:39:40.434Z,33.44
2023-05-19T03:41:48.027Z,33.91
2023-05-19T03:43:53.569Z,33.67
2023-05-19T03:45:59.021Z,33.7
2023-05-19T03:48:04.878Z,33.56
2023-05-19T03:50:10.403Z,33.58
2023-05-19T03:52:16.045Z,33.94
2023-05-19T03:54:22.096Z,33.81
2023-05-19T03:56:28.151Z,33.85
2023-05-19T03:58:33.882Z,33.99
2023-05-19T04:00:39.749Z,33.9
2023-05-19T04:02:45.577Z,33.69
2023-05-19T04:04:51.622Z,34.09
2023-05-19T04:06:57.556Z,34
2023-05-19T04:09:03.145Z,34.05
2023-05-19T04:11:09.830Z,33.77
2023-05-19T04:13:16.077Z,34
2023-05-19T04:15:22.125Z,33.93
2023-05-19T04:17:27.930Z,33.85
2023-05-19T04:19:33.522Z,33.71
2023-05-19T04:21:38.768Z,34.02
2023-05-19T04:23:44.511Z,33.76
2023-05-19T04:25:50.051Z,34.08
2023-05-19T04:27:55.642Z,33.97
2023-05-19T04:30:02.149Z,34.1
2023-05-19T04:32:09.070Z,34.09
2023-05-19T04:34:17.034Z,34.27
2023-05-19T04:36:22.573Z,33.76
2023-05-19T04:38:28.187Z,33.79
2023-05-19T04:40:35.074Z,34.19
2023-05-19T04:42:40.632Z,33.81
2023-05-19T04:44:48.233Z,34.14
2023-05-19T04:46:53.824Z,33.97
2023-05-19T04:49:00.061Z,34.09
2023-05-19T04:51:06.083Z,34
2023-05-19T04:53:11.548Z,33.99
2023-05-19T04:55:17.277Z,34.09
2023-05-19T04:57:23.024Z,34
2023-05-19T04:59:28.560Z,34.26
2023-05-19T05:01:34.548Z,34.17
2023-05-19T05:03:40.711Z,34.31
2023-05-19T05:05:46.213Z,34.54
2023-05-19T05:07:51.857Z,34.25
2023-05-19T05:09:57.442Z,34.63
2023-05-19T05:12:06.240Z,34.56
2023-05-19T05:14:13.069Z,34.57
2023-05-19T05:16:19.369Z,34.3
2023-05-19T05:18:25.200Z,34.42
2023-05-19T05:20:31.226Z,34.66
2023-05-19T05:22:38.126Z,34.49
2023-05-19T05:24:44.280Z,34.58
2023-05-19T05:26:49.968Z,34.67
2023-05-19T05:28:55.948Z,34.34
2023-05-19T05:31:02.354Z,34.27
2023-05-19T05:33:08.988Z,34.55
2023-05-19T05:35:15.063Z,34.76
2023-05-19T05:37:20.712Z,34.87
2023-05-19T05:39:26.571Z,35.33
2023-05-19T05:41:33.029Z,35.28
2023-05-19T05:43:38.577Z,35.6
2023-05-19T05:45:44.263Z,35.78
2023-05-19T05:47:49.654Z,35.76
2023-05-19T05:49:56.182Z,35.82
2023-05-19T05:52:09.653Z,35.83
2023-05-19T05:54:15.394Z,35.65
2023-05-19T05:56:20.591Z,35.35
2023-05-19T05:58:25.873Z,35.27
2023-05-19T06:00:32.115Z,35.24
2023-05-19T06:02:37.986Z,35.11
2023-05-19T06:04:43.829Z,35.06
2023-05-19T06:06:49.381Z,35.12
2023-05-19T06:08:54.853Z,35.42
2023-05-19T06:11:00.477Z,35.86
2023-05-19T06:13:06.001Z,35.5
2023-05-19T06:15:11.505Z,35.48
2023-05-19T06:17:17.095Z,35.39
2023-05-19T06:19:22.792Z,35.42
2023-05-19T06:21:28.375Z,35.59
2023-05-19T06:23:33.813Z,35.6
2023-05-19T06:25:39.254Z,35.65
2023-05-19T06:27:45.817Z,35.95
2023-05-19T06:29:51.262Z,35.84
2023-05-19T06:31:57.080Z,35.74
2023-05-19T06:34:02.245Z,35.51
2023-05-19T06:36:07.686Z,35.75
2023-05-19T06:38:13.252Z,35.61
2023-05-19T06:40:18.979Z,35.51
2023-05-19T06:42:24.527Z,35.84
2023-05-19T06:44:29.960Z,35.79
2023-05-19T06:46:35.639Z,35.59
2023-05-19T06:48:41.147Z,35.59
2023-05-19T06:50:46.788Z,35.59
2023-05-19T06:52:52.342Z,35.6
2023-05-19T06:54:59.212Z,35.56
2023-05-19T06:57:04.643Z,35.62
2023-05-19T06:59:09.916Z,35.65
2023-05-19T07:01:15.665Z,35.59
2023-05-19T07:03:21.494Z,35.63
2023-05-19T07:05:27.329Z,35.6
2023-05-19T07:07:33.943Z,35.64
2023-05-19T07:09:39.637Z,35.65
2023-05-19T07:11:45.189Z,35.66
2023-05-19T07:13:50.623Z,35.64
2023-05-19T07:15:56.079Z,35.6
2023-05-19T07:18:01.580Z,35.65
2023-05-19T07:20:07.247Z,35.61
2023-05-19T07:22:12.719Z,35.61
2023-05-19T07:24:18.536Z,35.63
2023-05-19T07:26:24.281Z,35.6
2023-05-19T07:28:29.824Z,35.59
2023-05-19T07:30:36.082Z,35.65
2023-05-19T07:32:42.165Z,35.63
2023-05-19T07:34:47.787Z,35.54
2023-05-19T07:36:53.215Z,35.55
2023-05-19T07:38:58.906Z,35.59
2023-05-19T07:41:04.597Z,35.58
2023-05-19T07:43:09.904Z,35.43
2023-05-19T07:45:15.288Z,35.43
2023-05-19T07:47:20.597Z,35.47
2023-05-19T07:49:26.268Z,35.44
2023-05-19T07:51:31.460Z,35.45
2023-05-19T07:53:37.069Z,35.46
2023-05-19T07:55:42.596Z,35.61
2023-05-19T07:57:48.238Z,35.5
2023-05-19T07:59:53.536Z,35.51
2023-05-19T08:01:59.033Z,35.54
2023-05-19T08:04:05.309Z,35.54
2023-05-19T08:06:10.824Z,35.54
2023-05-19T08:08:16.388Z,35.58
2023-05-19T08:10:21.905Z,35.85
2023-05-19T08:12:27.449Z,35.67
2023-05-19T08:14:33.099Z,35.67
2023-05-19T08:16:39.664Z,35.64
2023-05-19T08:18:45.701Z,35.63
2023-05-19T08:20:50.994Z,35.57
2023-05-19T08:22:56.948Z,35.58
2023-05-19T08:25:02.353Z,35.59
2023-05-19T08:27:07.693Z,35.59
2023-05-19T08:29:13.021Z,35.55
2023-05-19T08:31:18.710Z,35.51
2023-05-19T08:33:24.226Z,35.49
2023-05-19T08:35:29.756Z,35.47
2023-05-19T08:37:36.675Z,35.53
2023-05-19T08:39:43.481Z,35.73
2023-05-19T08:41:48.740Z,35.64
2023-05-19T08:43:54.418Z,35.5
2023-05-19T08:45:59.843Z,35.46
2023-05-19T08:48:05.648Z,35.4
2023-05-19T08:50:11.349Z,35.42
2023-05-19T08:52:16.805Z,35.36
2023-05-19T08:54:22.154Z,35.29
2023-05-19T08:56:27.629Z,35.26
2023-05-19T08:58:33.072Z,35.22
2023-05-19T09:00:39.402Z,35.24
2023-05-19T09:05:16.869Z,35.23
2023-05-19T09:07:22.377Z,35.15
2023-05-19T09:09:27.823Z,35.16
2023-05-19T09:11:33.516Z,35.19
2023-05-19T09:13:38.917Z,35.19
2023-05-19T09:15:44.140Z,35.17
2023-05-19T09:17:49.938Z,35.19
2023-05-19T09:19:55.653Z,35.25
2023-05-19T09:22:02.227Z,35.17
2023-05-19T09:24:07.774Z,35.12
2023-05-19T09:26:13.699Z,35.12
2023-05-19T09:28:19.133Z,35.11
2023-05-19T09:30:24.787Z,35.1
2023-05-19T09:32:30.718Z,35.03
2023-05-19T09:34:37.193Z,35.05
2023-05-19T09:36:43.064Z,35.03
2023-05-19T09:38:48.485Z,34.99
2023-05-19T09:40:53.982Z,34.98
2023-05-19T09:42:59.220Z,34.98
2023-05-19T09:45:04.654Z,35.05
2023-05-19T09:47:10.242Z,35.05
2023-05-19T09:49:15.452Z,35.02
2023-05-19T09:51:21.332Z,35.03
2023-05-19T09:53:26.806Z,35.09
2023-05-19T09:55:32.745Z,35.09
2023-05-19T09:57:38.313Z,35.05
2023-05-19T09:59:44.162Z,35.1
2023-05-19T10:01:49.883Z,35.06
2023-05-19T10:03:55.499Z,35.05
2023-05-19T10:06:00.762Z,35.03
2023-05-19T10:08:06.181Z,35.07
2023-05-19T10:10:11.517Z,35.14
2023-05-19T10:12:17.126Z,35.17
2023-05-19T10:14:22.574Z,35.13
2023-05-19T10:16:28.164Z,35.1
2023-05-19T10:18:35.287Z,35.11
2023-05-19T10:20:41.176Z,35.15
2023-05-19T10:22:46.938Z,35.11
2023-05-19T10:24:52.688Z,35.09
2023-05-19T10:26:58.200Z,35.1
2023-05-19T10:29:03.648Z,35.06
2023-05-19T10:31:09.094Z,35.09
2023-05-19T10:33:15.092Z,35.08
2023-05-19T10:35:20.370Z,35.1
2023-05-19T10:37:25.599Z,35.96
2023-05-19T10:39:30.955Z,35.89
2023-05-19T10:41:37.573Z,35.66
2023-05-19T10:43:43.331Z,35.58
2023-05-19T10:45:48.973Z,35.71
2023-05-19T10:47:54.752Z,35.91
2023-05-19T10:50:00.411Z,35.84
2023-05-19T10:52:05.954Z,35.92
2023-05-19T10:54:14.820Z,35.59
2023-05-19T10:56:20.412Z,35.55
2023-05-19T10:58:25.964Z,35.58
2023-05-19T11:00:31.270Z,35.4
2023-05-19T11:02:36.914Z,35.29
2023-05-19T11:04:42.384Z,35.54
2023-05-19T11:06:48.136Z,35.69
2023-05-19T11:08:53.782Z,35.64
2023-05-19T11:10:59.420Z,35.49
2023-05-19T11:13:06.402Z,35.9
2023-05-19T11:15:12.574Z,36.02
2023-05-19T11:17:19.029Z,36.91
2023-05-19T11:19:24.962Z,36.69
2023-05-19T11:21:31.025Z,37.19
2023-05-19T11:23:38.410Z,37.28
2023-05-19T11:25:44.278Z,37.13
2023-05-19T11:27:50.009Z,37.42
2023-05-19T11:29:55.750Z,37.37
2023-05-19T11:32:01.281Z,37.24
2023-05-19T11:34:06.656Z,36.97
2023-05-19T11:36:12.942Z,37.47
2023-05-19T11:38:18.197Z,38.42
2023-05-19T11:40:23.472Z,37.83
2023-05-19T11:42:28.997Z,37.72
2023-05-19T11:44:34.119Z,37.3
2023-05-19T11:46:39.444Z,37.25
2023-05-19T11:48:44.971Z,36.98
2023-05-19T11:50:50.360Z,36.99
2023-05-19T11:52:55.869Z,37.11
2023-05-19T11:55:01.411Z,37.2
2023-05-19T11:57:07.273Z,37.13
2023-05-19T11:59:12.922Z,38.19
2023-05-19T12:01:18.559Z,38.75
2023-05-19T12:03:24.267Z,39.58
2023-05-19T12:05:30.181Z,39.58
2023-05-19T12:07:35.730Z,39.33
2023-05-19T12:09:41.347Z,39.47
2023-05-19T12:11:47.078Z,39.41
2023-05-19T12:13:52.688Z,39.29
2023-05-19T12:15:58.369Z,39.33
2023-05-19T12:18:04.155Z,39.45
2023-05-19T12:20:09.670Z,39.97
2023-05-19T12:22:15.152Z,40.07
2023-05-19T12:24:20.746Z,40.31
2023-05-19T12:26:27.351Z,40.33
2023-05-19T12:28:32.559Z,39.83
2023-05-19T12:30:39.266Z,40.41
2023-05-19T12:32:44.914Z,40.95
2023-05-19T12:34:50.291Z,40.7
2023-05-19T12:36:55.759Z,41.04
2023-05-19T12:39:01.289Z,41.1
2023-05-19T12:41:06.834Z,41.71
2023-05-19T12:43:12.368Z,42.98
2023-05-19T12:45:17.786Z,42.83
2023-05-19T12:47:23.389Z,43.63
2023-05-19T12:49:29.020Z,44.41
2023-05-19T12:51:34.715Z,44.27
2023-05-19T12:53:40.188Z,44.7
2023-05-19T12:55:45.840Z,44.46
2023-05-19T12:57:53.204Z,44.21
2023-05-19T12:59:58.896Z,45.18
2023-05-19T13:02:04.674Z,45.09
2023-05-19T13:04:11.129Z,45.24
2023-05-19T13:06:16.935Z,44.61
2023-05-19T13:08:22.772Z,37.57
2023-05-19T13:10:28.320Z,37.15
2023-05-19T13:12:33.876Z,37.14
2023-05-19T13:14:39.707Z,37.39
2023-05-19T13:16:45.796Z,39.76
2023-05-19T13:18:51.692Z,41.28
2023-05-19T13:20:57.197Z,42.06
2023-05-19T13:23:02.706Z,41.96
2023-05-19T13:25:08.205Z,42.02
2023-05-19T13:27:13.785Z,41.86
2023-05-19T13:29:19.529Z,42.03
2023-05-19T13:31:25.557Z,42.23
2023-05-19T13:33:31.049Z,42.33
2023-05-19T13:35:36.468Z,42.25
2023-05-19T13:37:42.072Z,42.47
2023-05-19T13:39:47.769Z,42.22
2023-05-19T13:41:53.301Z,42.29
2023-05-19T13:43:59.063Z,42.45
2023-05-19T13:46:04.851Z,41.87
2023-05-19T13:48:10.511Z,41.67
2023-05-19T13:50:16.592Z,41.51
2023-05-19T13:52:22.344Z,41.23
2023-05-19T13:54:27.784Z,41.33
2023-05-19T13:56:33.227Z,41.3
2023-05-19T13:58:39.023Z,41.04
2023-05-19T14:00:44.362Z,41.34
2023-05-19T14:02:49.912Z,41.34
2023-05-19T14:04:55.733Z,41.18
2023-05-19T14:07:02.518Z,41.11
2023-05-19T14:09:07.981Z,40.84
2023-05-19T14:11:13.464Z,40.83
2023-05-19T14:13:38.346Z,40.77
2023-05-19T14:15:46.465Z,40.72
2023-05-19T14:17:52.166Z,39.89
2023-05-19T14:19:57.632Z,40.02
2023-05-19T14:22:03.282Z,40.79
2023-05-19T14:24:08.823Z,41.01
2023-05-19T14:26:14.844Z,40.85
2023-05-19T14:28:21.432Z,40.8
2023-05-19T14:30:27.602Z,40.74
2023-05-19T14:32:33.566Z,40.43
2023-05-19T14:34:39.307Z,40.75
2023-05-19T14:36:45.356Z,40.61
2023-05-19T14:38:51.032Z,40.44
2023-05-19T14:40:56.470Z,40.7
2023-05-19T14:43:01.681Z,40.6
2023-05-19T14:45:07.324Z,40.57
2023-05-19T14:47:12.973Z,40.45
2023-05-19T14:49:18.610Z,40.35
2023-05-19T14:51:24.155Z,40.47
2023-05-19T14:53:29.598Z,40.63
2023-05-19T14:55:35.350Z,40.6
2023-05-19T14:57:40.622Z,40.76
2023-05-19T14:59:46.118Z,40.61
2023-05-19T15:01:51.768Z,40.71
2023-05-19T15:03:57.337Z,40.6
2023-05-19T15:06:02.968Z,40.57
2023-05-19T15:08:09.084Z,40.52
2023-05-19T15:10:14.495Z,40.57
2023-05-19T15:12:20.095Z,40.67
2023-05-19T15:14:26.677Z,40.6
2023-05-19T15:16:33.236Z,40.54
2023-05-19T15:18:39.473Z,40.59
2023-05-19T15:20:45.030Z,40.53
2023-05-19T15:22:50.777Z,40.64
2023-05-19T15:24:56.323Z,40.58
2023-05-19T15:27:01.774Z,40.62
2023-05-19T15:29:07.530Z,40.57
2023-05-19T15:31:13.269Z,40.04
2023-05-19T15:33:18.899Z,40.21
2023-05-19T15:35:24.437Z,40.18
2023-05-19T15:37:29.984Z,40.22
2023-05-19T15:39:35.526Z,40.2
2023-05-19T15:41:41.032Z,39.97
2023-05-19T15:43:46.618Z,39.85
2023-05-19T15:45:52.264Z,39.73
2023-05-19T15:47:58.007Z,39.76
2023-05-19T15:50:04.162Z,39.65
2023-05-19T15:52:09.620Z,39.55
2023-05-19T15:54:14.988Z,39.46
2023-05-19T15:56:20.892Z,39.42
2023-05-19T15:58:27.366Z,39.45
2023-05-19T16:00:33.105Z,39.51
2023-05-19T16:02:39.227Z,38.86
2023-05-19T16:04:44.828Z,39.16
2023-05-19T16:06:50.283Z,39.53
2023-05-19T16:08:56.004Z,39.75
2023-05-19T16:11:01.540Z,39.72
2023-05-19T16:13:07.082Z,39.71
2023-05-19T16:15:13.095Z,39.73
2023-05-19T16:17:18.682Z,39.61
2023-05-19T16:19:24.442Z,39.63
2023-05-19T16:21:30.073Z,39.92
2023-05-19T16:23:35.761Z,39.88
2023-05-19T16:25:41.364Z,39.86
2023-05-19T16:27:46.870Z,39.92
2023-05-19T16:29:52.453Z,39.84
2023-05-19T16:31:57.917Z,39.86
2023-05-19T16:34:03.639Z,39.84
2023-05-19T16:36:09.276Z,39.91
2023-05-19T16:38:14.816Z,39.96
2023-05-19T16:40:20.359Z,39.93
2023-05-19T16:42:25.499Z,39.99
2023-05-19T16:44:30.817Z,39.9
2023-05-19T16:46:36.429Z,39.91
2023-05-19T16:48:41.830Z,39.89
2023-05-19T16:50:47.054Z,39.31
2023-05-19T16:52:52.838Z,39.29
2023-05-19T16:54:58.439Z,39.27
2023-05-19T16:57:04.409Z,39.2
2023-05-19T16:59:09.845Z,39.17
2023-05-19T17:01:15.509Z,39.19
2023-05-19T17:03:21.496Z,38.92
2023-05-19T17:05:27.107Z,39.53
2023-05-19T17:07:32.612Z,39.45
2023-05-19T17:09:38.566Z,39.41
2023-05-19T17:11:44.118Z,39.36
2023-05-19T17:13:49.690Z,39.4
2023-05-19T17:15:55.152Z,39.46
2023-05-19T17:18:00.966Z,39.88
2023-05-19T17:20:06.492Z,39.65
2023-05-19T17:22:11.865Z,39.66
2023-05-19T17:24:17.284Z,39.77
2023-05-19T17:26:23.014Z,39.69
2023-05-19T17:28:28.562Z,39.39
2023-05-19T17:30:34.866Z,38.58
2023-05-19T17:32:41.248Z,38.82
2023-05-19T17:34:46.762Z,38.34
2023-05-19T17:36:52.287Z,38.62
2023-05-19T17:38:58.014Z,38.53
2023-05-19T17:41:03.819Z,38.22
2023-05-19T17:43:09.609Z,38.15
2023-05-19T17:45:15.568Z,37.94
2023-05-19T17:47:21.436Z,38.76
2023-05-19T17:49:27.553Z,39.42
2023-05-19T17:51:33.110Z,39.21
2023-05-19T17:53:39.135Z,39.02
2023-05-19T17:55:44.944Z,38.71
2023-05-19T17:57:51.685Z,38.84
2023-05-19T17:59:57.316Z,38.59
2023-05-19T18:02:03.180Z,38.17
2023-05-19T18:04:10.120Z,38.5
2023-05-19T18:06:15.798Z,37.88
2023-05-19T18:08:21.340Z,38.26
2023-05-19T18:10:27.092Z,38.29
2023-05-19T18:12:32.832Z,38.31
2023-05-19T18:14:38.383Z,38.35
2023-05-19T18:16:44.174Z,38.54
2023-05-19T18:18:49.642Z,38.33
2023-05-19T18:20:55.206Z,38.32
2023-05-19T18:23:00.756Z,38.3
2023-05-19T18:25:06.317Z,38.25
2023-05-19T18:27:11.604Z,38.12
2023-05-19T18:29:17.293Z,38.23
2023-05-19T18:31:23.117Z,38.09
2023-05-19T18:33:32.661Z,38.14
2023-05-19T18:35:38.410Z,38.02
2023-05-19T18:37:43.908Z,38.18
2023-05-19T18:39:49.291Z,38.19
2023-05-19T18:41:54.836Z,38.1
2023-05-19T18:44:00.169Z,38.07
2023-05-19T18:46:05.744Z,38.07
2023-05-19T18:48:11.587Z,38.06
2023-05-19T18:50:17.314Z,38.23
2023-05-19T18:52:22.861Z,38.18
2023-05-19T18:54:28.905Z,38.06
2023-05-19T18:56:35.098Z,38.09
2023-05-19T18:58:40.717Z,38.11
2023-05-19T19:00:46.571Z,38.04
2023-05-19T19:02:52.354Z,38.06
2023-05-19T19:04:58.176Z,38.15
2023-05-19T19:07:03.691Z,38.09
2023-05-19T19:09:09.110Z,38.09
2023-05-19T19:11:15.105Z,38.06
2023-05-19T19:13:20.648Z,38.03
2023-05-19T19:15:26.801Z,38.02
2023-05-19T19:17:32.779Z,38.04
2023-05-19T19:19:38.926Z,38.05
2023-05-19T19:21:44.663Z,38.2
2023-05-19T19:23:50.406Z,38.09
2023-05-19T19:25:56.191Z,38.26
2023-05-19T19:28:01.618Z,38.32
2023-05-19T19:30:07.224Z,38.52
2023-05-19T19:32:12.972Z,38.53
2023-05-19T19:34:18.508Z,38.95
2023-05-19T19:36:25.512Z,38.75
2023-05-19T19:38:31.403Z,38.73
2023-05-19T19:40:37.713Z,39.07
2023-05-19T19:42:43.400Z,39.8
2023-05-19T19:44:49.280Z,40.12
2023-05-19T19:46:55.621Z,40.12
2023-05-19T19:49:01.120Z,40.16
2023-05-19T19:51:07.064Z,39.95
2023-05-19T19:53:13.445Z,39.69
2023-05-19T19:55:19.374Z,39.56
2023-05-19T19:57:24.820Z,39.71
2023-05-19T19:59:31.245Z,39.49
2023-05-19T20:01:37.174Z,39.3
2023-05-19T20:03:42.941Z,39.18
2023-05-19T20:05:48.535Z,39.17
2023-05-19T20:07:54.878Z,38.96
2023-05-19T20:10:00.517Z,38.82
2023-05-19T20:12:06.029Z,38.92
2023-05-19T20:14:11.619Z,38.86
2023-05-19T20:16:17.272Z,38.83
2023-05-19T20:18:22.799Z,38.79
2023-05-19T20:20:28.476Z,38.83
2023-05-19T20:22:33.777Z,38.91
2023-05-19T20:24:39.423Z,38.85
2023-05-19T20:26:44.961Z,38.73
2023-05-19T20:28:50.463Z,38.98
2023-05-19T20:30:56.059Z,39.02
2023-05-19T20:33:01.455Z,38.54
2023-05-19T20:35:06.868Z,38.7
2023-05-19T20:37:13.603Z,39.01
2023-05-19T20:39:19.249Z,38.9
2023-05-19T20:41:25.083Z,38.97
2023-05-19T20:43:30.542Z,38.5
2023-05-19T20:45:37.118Z,38.98
2023-05-19T20:47:42.873Z,39.14
2023-05-19T20:49:48.485Z,39.31
2023-05-19T20:51:53.951Z,39.18
2023-05-19T20:53:59.493Z,39.12
2023-05-19T20:56:04.888Z,38.74
2023-05-19T20:58:10.683Z,38.99
2023-05-19T21:00:16.142Z,39.11
2023-05-19T21:02:21.646Z,38.98
2023-05-19T21:04:27.177Z,38.82
2023-05-19T21:06:33.091Z,38.5
2023-05-19T21:08:38.393Z,38.39
2023-05-19T21:10:43.945Z,38.44
2023-05-19T21:12:49.201Z,38.76
2023-05-19T21:14:54.505Z,38.64
2023-05-19T21:17:00.245Z,38.43
2023-05-19T21:19:06.029Z,38.43
2023-05-19T21:21:11.784Z,38.58
2023-05-19T21:23:17.400Z,38.69
2023-05-19T21:25:22.898Z,38.51
2023-05-19T21:27:28.499Z,38.53
2023-05-19T21:29:34.460Z,38.86
2023-05-19T21:31:40.304Z,38.66
2023-05-19T21:33:45.772Z,38.77
2023-05-19T21:35:51.932Z,38.57
2023-05-19T21:37:57.418Z,38.56
2023-05-19T21:40:02.849Z,38.61
2023-05-19T21:42:08.535Z,38.74
2023-05-19T21:44:14.255Z,39.02
2023-05-19T21:46:19.890Z,38.64
2023-05-19T21:48:25.563Z,38.82
2023-05-19T21:50:31.385Z,38.71
2023-05-19T21:52:37.251Z,38.86
2023-05-19T21:54:42.809Z,39
2023-05-19T21:56:48.440Z,38.97
2023-05-19T21:58:54.092Z,38.82
2023-05-19T22:00:59.397Z,39.06
2023-05-19T22:03:05.217Z,38.64
2023-05-19T22:05:10.931Z,38.96
2023-05-19T22:07:16.454Z,39.05
2023-05-19T22:09:21.876Z,39.17
2023-05-19T22:11:27.142Z,39.16
2023-05-19T22:13:32.874Z,39.06
2023-05-19T22:15:38.249Z,39.1
2023-05-19T22:17:44.038Z,39.09
2023-05-19T22:19:49.618Z,38.78
2023-05-19T22:22:15.848Z,39.25
2023-05-19T22:24:21.476Z,39.2
2023-05-19T22:26:26.918Z,39.17
2023-05-19T22:28:32.809Z,39.05
2023-05-19T22:30:42.722Z,39
2023-05-19T22:32:48.579Z,39.13
2023-05-19T22:34:54.839Z,38.97
2023-05-19T22:37:01.177Z,39.01
2023-05-19T22:39:06.620Z,39.17
2023-05-19T22:41:12.277Z,39.23
2023-05-19T22:43:17.817Z,39.49
2023-05-19T22:45:23.358Z,39.5
2023-05-19T22:47:29.816Z,39.79
2023-05-19T22:49:35.468Z,39.67
2023-05-19T22:51:40.853Z,39.74
2023-05-19T22:53:46.429Z,39.93
2023-05-19T22:55:51.901Z,39.65
2023-05-19T22:57:57.537Z,39.4
2023-05-19T23:00:03.186Z,39.59
2023-05-19T23:02:09.033Z,39.4
2023-05-19T23:04:14.625Z,39.98
2023-05-19T23:06:20.311Z,39.49
2023-05-19T23:08:25.862Z,39.83
2023-05-19T23:10:31.660Z,39.65
2023-05-19T23:12:37.393Z,39.76
2023-05-19T23:14:43.004Z,39.59
2023-05-19T23:16:48.609Z,39.87
2023-05-19T23:18:54.248Z,39.73
2023-05-19T23:20:59.869Z,39.28
2023-05-19T23:23:05.421Z,39.4
2023-05-19T23:25:11.053Z,39.26
2023-05-19T23:27:16.604Z,39.2
2023-05-19T23:29:22.235Z,39.45
2023-05-19T23:31:27.946Z,39.14
2023-05-19T23:33:33.529Z,39.28
2023-05-19T23:35:39.511Z,39.51
2023-05-19T23:37:45.057Z,39.53
2023-05-19T23:39:50.687Z,39.38
2023-05-19T23:41:56.121Z,39.36
2023-05-19T23:44:01.588Z,39.36
2023-05-19T23:46:07.236Z,39.32
2023-05-19T23:48:12.817Z,39.41
2023-05-19T23:50:19.240Z,39.78
2023-05-19T23:52:24.762Z,39.78
2023-05-19T23:54:30.366Z,39.65
2023-05-19T23:56:36.158Z,39.59
2023-05-19T23:58:41.759Z,39.48
